Etusivu
METAR-TAF:

METAR-TAF

Lentoasemat :

Gillam, Manitoba, Kanada

Leveyspiiri: 56-21N, Pituuspiiri: 094-42W, korkeus merenpinnasta: 145 m

Tämänhetkinen sää

Tämä raportti tehtiin 51 minuuttia sitten, kello 07.00 UTC
Tuuli 3 kn lännestä
Lämpötila -11°C
Kosteus 92%
Ilmanpaine 1021 hPa
Näkyvyys: 12.9 km
Pilvistä 500 ft:n korkeudessa
heikkoa lumisadetta

METAR: CYGX 280700Z 27003KT 8SM -SN OVC005 M11/M12 A3014 RMK SC8 SLP224

Aika: 01:51 (07:51 UTC)

Sääennuste

Tämä raportti tehtiin 1 tunti ja 13 minuuttia sitten, kello 06.38 UTC
Ennuste voimassa 28. päivästä klo 07 UTC - 28. päivään klo 19 UTC
Tuuli 4 kn lännestä
Näkyvyys: 10 km
Pilvistä 600 ft:n korkeudessa
heikkoa lumisadetta
Ajoittain
28. päivästä klo 07 UTC - 28. päivään klo 19 UTC
Näkyvyys: 4.8 km
Pilvistä 400 ft:n korkeudessa
heikkoa lumisadetta, utua

TAF: CYGX 280638Z 2807/2819 28004KT P6SM -SN OVC006 TEMPO 2807/2819 3SM -SN BR OVC004 RMK NXT FCST BY 281300Z

Säähavainnot ja -ennusteet yli 4000 lentoasemalta (METAR- ja TAF-raportit).

Käytössä olevat sääasemat on merkitty karttaan keltaisilla ja punaisilla pisteillä.

Aseta hiiri pisteen päälle nähdäksesi sääaseman nimen.

Klikkaa sitten nähdäksesi säähavainnot ja -ennusteet.

Kartan vaihtaminen: klikkaa mustalla rastilla varustettuja vihreitä pisteitä, niin voit zoomata sisään; viivalla varustettua vihreää pistettä, niin voit zoomata ulos tai vihreitä nuolia, niin pääset viereisille kartoille.


METAR-TAF: